createdAt,value
2022-09-16T00:01:57.174Z,99.90
2022-09-16T00:04:23.858Z,99.90
2022-09-16T00:06:50.500Z,99.90
2022-09-16T00:09:17.236Z,99.90
2022-09-16T00:11:43.764Z,99.90
2022-09-16T00:14:10.563Z,99.90
2022-09-16T00:16:37.456Z,99.90
2022-09-16T00:19:04.128Z,99.90
2022-09-16T00:21:31.243Z,99.90
2022-09-16T00:23:57.853Z,99.90
2022-09-16T00:26:24.693Z,99.90
2022-09-16T00:28:51.413Z,99.90
2022-09-16T00:31:21.335Z,99.90
2022-09-16T00:33:47.957Z,99.90
2022-09-16T00:36:19.594Z,99.90
2022-09-16T00:38:50.055Z,99.90
2022-09-16T00:41:18.633Z,99.90
2022-09-16T00:44:04.700Z,99.90
2022-09-16T00:46:47.618Z,99.90
2022-09-16T00:49:40.627Z,99.90
2022-09-16T00:52:08.091Z,99.90
2022-09-16T00:54:38.886Z,99.90
2022-09-16T00:57:08.819Z,99.90
2022-09-16T00:59:45.985Z,99.90
2022-09-16T01:02:17.116Z,99.90
2022-09-16T01:04:51.189Z,99.90
2022-09-16T01:07:26.372Z,99.90
2022-09-16T01:09:53.346Z,99.90
2022-09-16T01:12:20.087Z,99.90
2022-09-16T01:14:55.689Z,99.90
2022-09-16T01:17:50.308Z,99.90
2022-09-16T01:20:53.639Z,99.90
2022-09-16T01:23:44.779Z,99.90
2022-09-16T01:26:37.563Z,99.90
2022-09-16T01:29:22.721Z,99.90
2022-09-16T01:32:06.152Z,99.90
2022-09-16T01:35:23.769Z,99.90
2022-09-16T01:38:17.292Z,99.90
2022-09-16T01:40:55.781Z,99.90
2022-09-16T01:43:42.403Z,99.90
2022-09-16T01:46:36.627Z,99.90
2022-09-16T01:49:26.301Z,99.90
2022-09-16T01:52:21.984Z,99.90
2022-09-16T01:55:18.672Z,99.90
2022-09-16T01:58:17.356Z,99.90
2022-09-16T02:00:45.830Z,99.90
2022-09-16T02:03:21.280Z,99.90
2022-09-16T02:06:02.448Z,99.90
2022-09-16T02:08:46.566Z,99.90
2022-09-16T02:11:18.069Z,99.90
2022-09-16T02:13:57.769Z,99.90
2022-09-16T02:16:54.208Z,99.90
2022-09-16T02:19:29.642Z,99.90
2022-09-16T02:21:57.508Z,99.90
2022-09-16T02:24:25.842Z,99.90
2022-09-16T02:26:59.591Z,99.90
2022-09-16T02:29:30.833Z,99.90
2022-09-16T02:32:02.537Z,99.90
2022-09-16T02:34:45.023Z,99.90
2022-09-16T02:37:26.704Z,99.90
2022-09-16T02:39:57.712Z,99.90
2022-09-16T02:42:24.563Z,99.90
2022-09-16T02:44:51.210Z,99.90
2022-09-16T02:47:32.057Z,99.90
2022-09-16T02:50:12.278Z,99.90
2022-09-16T02:52:47.788Z,99.90
2022-09-16T02:55:52.104Z,99.90
2022-09-16T02:58:18.872Z,99.90
2022-09-16T03:00:52.255Z,99.90
2022-09-16T03:03:19.029Z,99.90
2022-09-16T03:06:25.400Z,99.90
2022-09-16T03:08:56.052Z,99.90
2022-09-16T03:11:43.617Z,99.90
2022-09-16T03:14:28.337Z,99.90
2022-09-16T03:17:13.441Z,99.90
2022-09-16T03:19:50.553Z,99.90
2022-09-16T03:22:37.406Z,99.90
2022-09-16T03:25:22.936Z,99.90
2022-09-16T03:27:54.880Z,99.90
2022-09-16T03:30:21.428Z,99.90
2022-09-16T03:32:58.478Z,99.90
2022-09-16T03:35:38.563Z,99.90
2022-09-16T03:38:08.186Z,99.90
2022-09-16T03:40:36.596Z,99.90
2022-09-16T03:43:11.769Z,99.90
2022-09-16T03:45:40.629Z,99.90
2022-09-16T03:48:07.430Z,99.90
2022-09-16T03:50:34.036Z,99.90
2022-09-16T03:53:00.817Z,99.90
2022-09-16T03:55:27.704Z,99.90
2022-09-16T03:57:55.234Z,99.90
2022-09-16T04:00:22.981Z,99.90
2022-09-16T04:02:49.816Z,99.90
2022-09-16T04:05:16.874Z,99.90
2022-09-16T04:07:43.463Z,99.90
2022-09-16T04:10:12.355Z,99.90
2022-09-16T04:12:39.148Z,99.90
2022-09-16T04:15:08.920Z,99.90
2022-09-16T04:17:35.555Z,99.90
2022-09-16T04:20:02.459Z,99.90
2022-09-16T04:22:32.092Z,99.90
2022-09-16T04:24:58.699Z,99.90
2022-09-16T04:27:25.797Z,99.90
2022-09-16T04:29:52.394Z,99.90
2022-09-16T04:32:18.997Z,99.90
2022-09-16T04:34:46.064Z,99.90
2022-09-16T04:37:12.670Z,99.90
2022-09-16T04:39:39.268Z,99.90
2022-09-16T04:42:06.139Z,99.90
2022-09-16T04:44:32.894Z,99.90
2022-09-16T04:46:59.909Z,99.90
2022-09-16T04:49:26.557Z,99.90
2022-09-16T04:51:53.306Z,99.90
2022-09-16T04:54:19.849Z,99.90
2022-09-16T04:56:46.761Z,99.90
2022-09-16T04:59:13.374Z,99.90
2022-09-16T05:01:40.395Z,99.90
2022-09-16T05:04:07.902Z,99.90
2022-09-16T05:06:37.454Z,99.90
2022-09-16T05:09:04.798Z,99.90
2022-09-16T05:11:33.857Z,99.90
2022-09-16T05:14:06.693Z,99.90
2022-09-16T05:16:33.844Z,99.90
2022-09-16T05:19:04.561Z,99.90
2022-09-16T05:21:34.278Z,99.90
2022-09-16T05:24:05.266Z,99.90
2022-09-16T05:26:33.143Z,99.90
2022-09-16T05:29:05.056Z,99.90
2022-09-16T05:31:34.385Z,99.90
2022-09-16T05:34:06.348Z,99.90
2022-09-16T05:36:36.322Z,99.90
2022-09-16T05:39:23.119Z,99.90
2022-09-16T05:41:52.727Z,99.90
2022-09-16T05:44:19.357Z,99.90
2022-09-16T05:46:47.992Z,99.90
2022-09-16T05:49:20.304Z,99.90
2022-09-16T05:51:48.418Z,99.90
2022-09-16T05:54:15.113Z,99.90
2022-09-16T05:56:42.469Z,99.90
2022-09-16T05:59:11.706Z,99.90
2022-09-16T06:01:38.664Z,99.90
2022-09-16T06:04:07.640Z,99.90
2022-09-16T06:06:37.325Z,99.90
2022-09-16T06:09:13.000Z,99.90
2022-09-16T06:11:45.460Z,99.90
2022-09-16T06:14:14.649Z,99.90
2022-09-16T06:16:41.890Z,99.90
2022-09-16T06:19:13.172Z,99.90
2022-09-16T06:21:40.662Z,99.90
2022-09-16T06:24:10.490Z,99.90
2022-09-16T06:26:39.243Z,99.90
2022-09-16T06:29:06.574Z,99.90
2022-09-16T06:31:34.606Z,99.90
2022-09-16T06:34:01.247Z,99.90
2022-09-16T06:36:30.701Z,99.90
2022-09-16T06:38:57.490Z,99.90
2022-09-16T06:41:24.420Z,99.90
2022-09-16T06:43:51.949Z,99.90
2022-09-16T06:46:21.323Z,99.90
2022-09-16T06:48:52.658Z,99.90
2022-09-16T06:51:23.748Z,99.90
2022-09-16T06:53:51.680Z,99.90
2022-09-16T06:56:20.786Z,99.90
2022-09-16T06:58:49.960Z,99.90
2022-09-16T07:01:21.723Z,99.90
2022-09-16T07:03:50.713Z,99.90
2022-09-16T07:06:18.652Z,99.90
2022-09-16T07:08:46.133Z,99.90
2022-09-16T07:11:14.068Z,99.90
2022-09-16T07:13:41.225Z,99.90
2022-09-16T07:16:14.266Z,99.90
2022-09-16T07:18:42.079Z,99.90
2022-09-16T07:21:14.244Z,99.90
2022-09-16T07:23:42.142Z,99.90
2022-09-16T07:26:17.650Z,99.90
2022-09-16T07:28:48.385Z,99.90
2022-09-16T07:31:17.994Z,99.90
2022-09-16T07:33:49.689Z,99.90
2022-09-16T07:36:19.869Z,99.90
2022-09-16T07:38:47.739Z,99.90
2022-09-16T07:41:28.194Z,99.90
2022-09-16T07:43:58.889Z,99.90
2022-09-16T07:46:27.764Z,99.90
2022-09-16T07:48:55.062Z,99.90
2022-09-16T07:51:24.023Z,99.90
2022-09-16T07:53:55.559Z,99.90
2022-09-16T07:56:25.418Z,99.90
2022-09-16T07:58:53.877Z,99.90
2022-09-16T08:01:21.052Z,99.90
2022-09-16T08:03:48.097Z,99.90
2022-09-16T08:06:17.826Z,99.90
2022-09-16T08:08:45.422Z,99.90
2022-09-16T08:11:14.358Z,99.90
2022-09-16T08:13:42.751Z,99.90
2022-09-16T08:16:14.159Z,99.90
2022-09-16T08:18:41.420Z,99.90
2022-09-16T08:21:10.009Z,99.90
2022-09-16T08:23:37.358Z,99.90
2022-09-16T08:26:05.038Z,99.90
2022-09-16T08:28:40.047Z,99.90
2022-09-16T08:31:19.887Z,99.90
2022-09-16T08:33:47.347Z,99.90
2022-09-16T08:36:20.024Z,99.90
2022-09-16T08:38:48.132Z,99.90
2022-09-16T08:41:32.027Z,99.90
2022-09-16T08:44:01.381Z,99.90
2022-09-16T08:46:44.966Z,99.90
2022-09-16T08:49:40.117Z,99.90
2022-09-16T08:52:28.394Z,99.90
2022-09-16T08:55:00.689Z,99.90
2022-09-16T08:57:30.354Z,99.90
2022-09-16T09:00:05.152Z,99.90
2022-09-16T09:03:01.823Z,99.90
2022-09-16T09:05:40.205Z,99.90
2022-09-16T09:08:20.650Z,99.90
2022-09-16T09:11:06.860Z,99.90
2022-09-16T09:13:55.660Z,99.90
2022-09-16T09:17:06.292Z,99.90
2022-09-16T09:19:54.877Z,99.90
2022-09-16T09:22:45.830Z,99.90
2022-09-16T09:25:36.683Z,99.90
2022-09-16T09:28:32.648Z,99.90
2022-09-16T09:31:14.250Z,99.90
2022-09-16T09:33:59.508Z,99.90
2022-09-16T09:36:45.571Z,99.90
2022-09-16T09:39:33.241Z,99.90
2022-09-16T09:42:16.292Z,99.90
2022-09-16T09:45:02.363Z,99.90
2022-09-16T09:48:20.113Z,99.90
2022-09-16T09:50:49.194Z,99.90
2022-09-16T09:53:29.862Z,99.90
2022-09-16T09:56:07.380Z,99.90
2022-09-16T09:58:41.033Z,99.90
2022-09-16T10:01:08.939Z,99.90
2022-09-16T10:03:37.911Z,99.90
2022-09-16T10:06:04.999Z,99.90
2022-09-16T10:08:50.301Z,99.90
2022-09-16T10:11:21.899Z,99.90
2022-09-16T10:13:53.976Z,99.90
2022-09-16T10:16:25.160Z,99.90
2022-09-16T10:19:18.019Z,99.90
2022-09-16T10:21:56.811Z,99.90
2022-09-16T10:24:31.346Z,99.90
2022-09-16T10:26:59.468Z,99.90
2022-09-16T10:29:26.273Z,99.90
2022-09-16T10:31:53.471Z,99.90
2022-09-16T10:34:40.346Z,99.90
2022-09-16T10:37:12.645Z,99.90
2022-09-16T10:39:52.125Z,99.90
2022-09-16T10:42:21.598Z,99.90
2022-09-16T10:44:51.381Z,99.90
2022-09-16T10:47:26.070Z,99.90
2022-09-16T10:49:58.896Z,99.90
2022-09-16T10:52:27.977Z,99.90
2022-09-16T10:54:55.926Z,99.90
2022-09-16T10:57:29.682Z,99.90
2022-09-16T11:00:14.680Z,99.90
2022-09-16T11:03:18.976Z,99.90
2022-09-16T11:05:58.544Z,99.90
2022-09-16T11:08:39.482Z,99.90
2022-09-16T11:14:25.970Z,99.90
2022-09-16T11:17:01.372Z,99.90
2022-09-16T11:20:06.969Z,99.90
2022-09-16T11:22:54.276Z,99.90
2022-09-16T11:25:42.173Z,99.90
2022-09-16T11:28:20.344Z,99.90
2022-09-16T11:31:13.130Z,99.90
2022-09-16T11:33:46.722Z,99.90
2022-09-16T11:36:40.277Z,99.90
2022-09-16T11:39:44.395Z,99.90
2022-09-16T11:42:21.366Z,99.90
2022-09-16T11:45:01.838Z,99.90
2022-09-16T11:47:51.947Z,98.70
2022-09-16T11:50:56.823Z,99.70
2022-09-16T11:53:46.419Z,96.80
2022-09-16T11:56:47.064Z,97.20
2022-09-16T11:59:55.763Z,97.40
2022-09-16T12:02:27.590Z,97.20
2022-09-16T12:04:58.922Z,97.90
2022-09-16T12:07:38.657Z,99.20
2022-09-16T12:10:25.925Z,99.90
2022-09-16T12:12:58.692Z,99.90
2022-09-16T12:15:48.513Z,99.90
2022-09-16T12:18:42.884Z,99.90
2022-09-16T12:21:19.723Z,99.90
2022-09-16T12:23:51.286Z,99.90
2022-09-16T12:26:24.343Z,99.90
2022-09-16T12:28:59.411Z,99.90
2022-09-16T12:31:32.670Z,99.90
2022-09-16T12:34:05.332Z,99.90
2022-09-16T12:36:35.615Z,99.90
2022-09-16T12:39:02.505Z,99.90
2022-09-16T12:41:49.378Z,99.90
2022-09-16T12:44:34.246Z,99.90
2022-09-16T12:47:38.261Z,99.90
2022-09-16T12:50:46.635Z,99.90
2022-09-16T12:53:31.622Z,99.90
2022-09-16T12:56:01.003Z,99.90
2022-09-16T12:58:51.755Z,99.70
2022-09-16T13:01:21.555Z,99.90
2022-09-16T13:03:59.666Z,99.90
2022-09-16T13:06:37.351Z,98.20
2022-09-16T13:09:22.429Z,96.50
2022-09-16T13:14:56.880Z,94.10
2022-09-16T13:17:35.852Z,94.30
2022-09-16T13:20:17.484Z,92.70
2022-09-16T13:23:08.774Z,94.00
2022-09-16T13:26:07.327Z,93.60
2022-09-16T13:28:43.508Z,92.90
2022-09-16T13:31:17.604Z,93.70
2022-09-16T13:33:45.588Z,94.70
2022-09-16T13:36:21.418Z,96.40
2022-09-16T13:38:56.320Z,97.20
2022-09-16T13:41:35.250Z,97.80
2022-09-16T13:44:22.767Z,98.50
2022-09-16T13:46:49.669Z,99.90
2022-09-16T13:49:23.706Z,99.70
2022-09-16T13:51:51.925Z,99.60
2022-09-16T13:54:33.101Z,99.30
2022-09-16T13:57:37.258Z,97.50
2022-09-16T14:00:21.001Z,98.70
2022-09-16T14:03:21.924Z,96.20
2022-09-16T14:06:10.623Z,95.40
2022-09-16T14:08:52.295Z,97.10
2022-09-16T14:12:00.697Z,96.30
2022-09-16T14:14:47.499Z,94.40
2022-09-16T14:17:20.650Z,95.80
2022-09-16T14:19:49.800Z,95.70
2022-09-16T14:22:22.988Z,95.80
2022-09-16T14:25:29.113Z,95.30
2022-09-16T14:27:54.623Z,96.40
2022-09-16T14:30:21.329Z,96.10
2022-09-16T14:32:49.185Z,96.00
2022-09-16T14:35:29.498Z,97.20
2022-09-16T14:38:43.883Z,96.60
2022-09-16T14:41:45.440Z,95.20
2022-09-16T14:44:22.537Z,96.00
2022-09-16T14:47:30.817Z,96.00
2022-09-16T14:50:28.100Z,95.60
2022-09-16T14:53:05.399Z,95.60
2022-09-16T14:55:36.241Z,94.90
2022-09-16T14:58:03.211Z,95.10
2022-09-16T15:00:37.934Z,95.40
2022-09-16T15:03:14.544Z,95.90
2022-09-16T15:05:45.484Z,95.80
2022-09-16T15:08:23.827Z,97.30
2022-09-16T15:10:56.858Z,96.50
2022-09-16T15:13:27.830Z,96.00
2022-09-16T15:16:18.879Z,93.90
2022-09-16T15:18:53.559Z,93.40
2022-09-16T15:21:29.713Z,92.20
2022-09-16T15:23:59.547Z,92.20
2022-09-16T15:26:30.997Z,92.80
2022-09-16T15:29:03.146Z,92.90
2022-09-16T15:31:32.152Z,91.80
2022-09-16T15:34:00.357Z,93.10
2022-09-16T15:36:34.716Z,94.30
2022-09-16T15:39:01.211Z,93.90
2022-09-16T15:41:28.306Z,94.90
2022-09-16T15:43:54.989Z,94.90
2022-09-16T15:46:23.594Z,95.50
2022-09-16T15:48:57.100Z,96.50
2022-09-16T15:51:29.600Z,96.30
2022-09-16T15:54:02.741Z,97.20
2022-09-16T15:56:51.380Z,97.60
2022-09-16T15:59:33.138Z,97.30
2022-09-16T16:02:05.584Z,98.10
2022-09-16T16:04:34.023Z,98.20
2022-09-16T16:07:06.045Z,98.20
2022-09-16T16:09:36.660Z,97.90
2022-09-16T16:12:12.134Z,97.50
2022-09-16T16:14:40.067Z,98.20
2022-09-16T16:17:14.426Z,98.50
2022-09-16T16:19:46.717Z,97.90
2022-09-16T16:22:14.005Z,98.20
2022-09-16T16:24:40.909Z,96.90
2022-09-16T16:27:08.637Z,97.00
2022-09-16T16:29:35.246Z,97.70
2022-09-16T16:32:05.309Z,98.10
2022-09-16T16:34:37.544Z,98.20
2022-09-16T16:37:05.291Z,98.50
2022-09-16T16:39:32.381Z,97.70
2022-09-16T16:41:59.035Z,98.30
2022-09-16T16:44:26.200Z,99.10
2022-09-16T16:46:54.826Z,99.00
2022-09-16T16:49:22.641Z,99.90
2022-09-16T16:51:55.713Z,99.90
2022-09-16T16:54:22.318Z,99.90
2022-09-16T16:56:49.636Z,99.90
2022-09-16T16:59:17.235Z,99.90
2022-09-16T17:01:48.595Z,99.80
2022-09-16T17:04:16.035Z,99.70
2022-09-16T17:06:42.810Z,99.70
2022-09-16T17:09:15.070Z,99.90
2022-09-16T17:11:54.516Z,99.90
2022-09-16T17:14:23.349Z,99.90
2022-09-16T17:16:50.743Z,99.90
2022-09-16T17:19:18.961Z,99.90
2022-09-16T17:21:46.639Z,99.90
2022-09-16T17:24:17.793Z,99.90
2022-09-16T17:26:45.018Z,99.90
2022-09-16T17:29:15.894Z,99.90
2022-09-16T17:31:43.622Z,99.90
2022-09-16T17:34:12.848Z,99.90
2022-09-16T17:36:43.182Z,99.90
2022-09-16T17:39:16.675Z,99.90
2022-09-16T17:41:45.548Z,99.90
2022-09-16T17:44:13.630Z,99.90
2022-09-16T17:46:41.845Z,99.90
2022-09-16T17:49:20.208Z,99.90
2022-09-16T17:51:47.141Z,99.90
2022-09-16T17:54:14.270Z,99.90
2022-09-16T17:56:42.766Z,99.90
2022-09-16T17:59:10.933Z,99.90
2022-09-16T18:01:37.660Z,99.90
2022-09-16T18:04:04.436Z,99.90
2022-09-16T18:06:35.567Z,99.90
2022-09-16T18:09:04.611Z,99.90
2022-09-16T18:11:31.535Z,99.90
2022-09-16T18:14:00.261Z,99.90
2022-09-16T18:16:27.877Z,99.90
2022-09-16T18:18:56.658Z,99.90
2022-09-16T18:21:24.542Z,99.90
2022-09-16T18:23:59.758Z,99.90
2022-09-16T18:26:27.521Z,99.90
2022-09-16T18:29:11.794Z,99.90
2022-09-16T18:31:39.688Z,99.90
2022-09-16T18:34:06.286Z,99.90
2022-09-16T18:36:35.030Z,99.90
2022-09-16T18:39:01.834Z,99.90
2022-09-16T18:41:31.582Z,99.90
2022-09-16T18:44:01.380Z,99.90
2022-09-16T18:46:30.473Z,99.90
2022-09-16T18:48:58.332Z,99.90
2022-09-16T18:51:35.175Z,99.90
2022-09-16T18:54:10.219Z,99.90
2022-09-16T18:56:38.852Z,99.90
2022-09-16T18:59:23.965Z,99.90
2022-09-16T19:01:53.124Z,99.90
2022-09-16T19:04:22.670Z,99.90
2022-09-16T19:06:51.839Z,99.90
2022-09-16T19:09:21.623Z,99.90
2022-09-16T19:11:49.794Z,99.90
2022-09-16T19:14:16.491Z,99.90
2022-09-16T19:16:44.881Z,99.90
2022-09-16T19:19:14.442Z,99.90
2022-09-16T19:21:42.300Z,99.90
2022-09-16T19:24:16.646Z,99.90
2022-09-16T19:26:44.628Z,99.90
2022-09-16T19:29:12.940Z,99.90
2022-09-16T19:31:41.491Z,99.90
2022-09-16T19:34:09.063Z,99.90
2022-09-16T19:36:37.050Z,99.90
2022-09-16T19:39:05.581Z,99.90
2022-09-16T19:41:33.735Z,99.90
2022-09-16T19:44:03.083Z,99.90
2022-09-16T19:46:32.748Z,99.90
2022-09-16T19:48:59.475Z,99.90
2022-09-16T19:51:26.803Z,99.90
2022-09-16T19:53:54.475Z,99.90
2022-09-16T19:56:24.940Z,99.90
2022-09-16T19:58:52.926Z,99.90
2022-09-16T20:01:23.096Z,99.90
2022-09-16T20:03:50.638Z,99.90
2022-09-16T20:06:20.526Z,99.90
2022-09-16T20:08:49.237Z,99.90
2022-09-16T20:11:21.076Z,99.90
2022-09-16T20:13:55.917Z,99.90
2022-09-16T20:16:25.676Z,99.90
2022-09-16T20:18:53.224Z,99.90
2022-09-16T20:21:21.969Z,99.90
2022-09-16T20:23:48.910Z,99.90
2022-09-16T20:26:19.722Z,99.90
2022-09-16T20:28:51.849Z,99.90
2022-09-16T20:31:21.960Z,99.90
2022-09-16T20:33:49.303Z,99.90
2022-09-16T20:36:18.144Z,99.90
2022-09-16T20:38:45.382Z,99.90
2022-09-16T20:41:18.021Z,99.90
2022-09-16T20:43:45.794Z,99.90
2022-09-16T20:46:17.967Z,99.90
2022-09-16T20:48:45.386Z,99.90
2022-09-16T20:51:17.640Z,99.90
2022-09-16T20:53:49.542Z,99.90
2022-09-16T20:56:16.755Z,99.90
2022-09-16T20:58:44.120Z,99.90
2022-09-16T21:01:13.689Z,99.90
2022-09-16T21:03:41.092Z,99.90
2022-09-16T21:06:10.044Z,99.90
2022-09-16T21:08:37.389Z,99.90
2022-09-16T21:11:25.435Z,99.90
2022-09-16T21:13:54.545Z,99.90
2022-09-16T21:16:21.918Z,99.90
2022-09-16T21:18:52.390Z,99.90
2022-09-16T21:21:19.634Z,99.90
2022-09-16T21:23:47.354Z,99.90
2022-09-16T21:26:19.674Z,99.90
2022-09-16T21:28:49.137Z,99.90
2022-09-16T21:31:16.158Z,99.90
2022-09-16T21:33:44.753Z,99.90
2022-09-16T21:36:13.729Z,99.90
2022-09-16T21:38:41.316Z,99.90
2022-09-16T21:41:12.303Z,99.90
2022-09-16T21:43:43.991Z,99.90
2022-09-16T21:46:12.563Z,99.90
2022-09-16T21:48:39.571Z,99.90
2022-09-16T21:51:09.188Z,99.90
2022-09-16T21:53:45.614Z,99.90
2022-09-16T21:56:19.125Z,99.90
2022-09-16T21:58:46.895Z,99.90
2022-09-16T22:01:19.045Z,99.90
2022-09-16T22:03:48.759Z,99.90
2022-09-16T22:06:18.505Z,99.90
2022-09-16T22:08:48.945Z,99.90
2022-09-16T22:11:17.745Z,99.90
2022-09-16T22:13:44.445Z,99.90
2022-09-16T22:16:26.619Z,99.90
2022-09-16T22:18:59.168Z,99.90
2022-09-16T22:21:27.628Z,99.90
2022-09-16T22:23:54.420Z,99.90
2022-09-16T22:26:22.696Z,99.90
2022-09-16T22:28:50.538Z,99.90
2022-09-16T22:31:20.561Z,99.90
2022-09-16T22:33:50.328Z,99.90
2022-09-16T22:36:19.905Z,99.90
2022-09-16T22:38:47.973Z,99.90
2022-09-16T22:41:17.406Z,99.90
2022-09-16T22:43:45.688Z,99.90
2022-09-16T22:46:18.368Z,99.90
2022-09-16T22:48:46.142Z,99.90
2022-09-16T22:51:14.791Z,99.90
2022-09-16T22:53:42.240Z,99.90
2022-09-16T22:56:18.023Z,99.90
2022-09-16T22:58:45.232Z,99.90
2022-09-16T23:01:17.357Z,99.90
2022-09-16T23:03:45.496Z,99.90
2022-09-16T23:06:14.435Z,99.90
2022-09-16T23:08:43.137Z,99.90
2022-09-16T23:11:12.434Z,99.90
2022-09-16T23:13:41.841Z,99.90
2022-09-16T23:16:30.731Z,99.90
2022-09-16T23:18:59.682Z,99.90
2022-09-16T23:21:26.749Z,99.90
2022-09-16T23:23:55.733Z,99.90
2022-09-16T23:26:29.928Z,99.90
2022-09-16T23:28:57.625Z,99.90
2022-09-16T23:31:27.640Z,99.90
2022-09-16T23:33:55.234Z,99.90
2022-09-16T23:36:23.124Z,99.90
2022-09-16T23:38:49.803Z,99.90
2022-09-16T23:41:19.847Z,99.90
2022-09-16T23:43:48.514Z,99.90
2022-09-16T23:46:19.215Z,99.90
2022-09-16T23:48:46.892Z,99.90
2022-09-16T23:51:14.089Z,99.90
2022-09-16T23:53:42.480Z,99.90
2022-09-16T23:56:12.572Z,99.90
2022-09-16T23:58:39.716Z,99.90
